Time;durP1;ratioP1;P1;durP2;ratioP2;P2;SDS_P1;SDS_P2;PMS_P1;PMS_P2;Temp;Humidity;BMP_temperature;BMP_pressure;BME280_temperature;BME280_humidity;BME280_pressure;Samples;Min_cycle;Max_cycle;Signal;HPM_P1;HPM_P2
2024/04/12 00:01:17;;;;;;;10.15;2.53;;;;;;;;;;5378240;26;20010;-68
2024/04/12 00:03:48;;;;;;;10.23;2.50;;;;;;;;;;5369839;26;20820;-68
2024/04/12 00:06:15;;;;;;;10.73;2.80;;;;;;;;;;5370956;26;20015;-68
2024/04/12 00:08:46;;;;;;;8.55;2.40;;;;;;;;;;5356258;26;20007;-68
2024/04/12 00:11:18;;;;;;;11.77;2.88;;;;;;;;;;5382682;26;20033;-68
2024/04/12 00:13:47;;;;;;;9.43;2.25;;;;;;;;;;5371465;26;20548;-73
2024/04/12 00:16:23;;;;;;;11.57;2.53;;;;;;;;;;5364239;26;20010;-69
2024/04/12 00:19:02;;;;;;;;;;;;;;;;;;5357365;26;21085;-69
2024/04/12 00:21:32;;;;;;;12.40;2.58;;;;;;;;;;5375753;26;20447;-69
2024/04/12 00:23:59;;;;;;;9.15;2.15;;;;;;;;;;5353005;26;20008;-68
2024/04/12 00:26:30;;;;;;;8.50;2.25;;;;;;;;;;5374432;26;20017;-69
2024/04/12 00:28:58;;;;;;;8.18;2.38;;;;;;;;;;5368219;26;20006;-68
2024/04/12 00:31:26;;;;;;;10.18;2.40;;;;;;;;;;5375975;26;19999;-68
2024/04/12 00:34:04;;;;;;;10.48;2.33;;;;;;;;;;5374025;26;20026;-68
2024/04/12 00:36:34;;;;;;;11.95;2.80;;;;;;;;;;5373527;26;20022;-68
2024/04/12 00:39:01;;;;;;;9.15;2.10;;;;;;;;;;5368580;26;20012;-71
2024/04/12 00:41:29;;;;;;;10.35;2.15;;;;;;;;;;5360823;26;20791;-68
2024/04/12 00:43:56;;;;;;;11.45;2.15;;;;;;;;;;5350246;26;19999;-69
2024/04/12 00:46:28;;;;;;;9.82;1.98;;;;;;;;;;5375904;26;20482;-70
2024/04/12 00:49:06;;;;;;;9.68;2.42;;;;;;;;;;5375700;26;20019;-68
2024/04/12 00:51:34;;;;;;;8.55;2.05;;;;;;;;;;5356344;26;20034;-71
2024/04/12 00:54:02;;;;;;;12.20;2.50;;;;;;;;;;5368105;26;20096;-69
2024/04/12 00:56:29;;;;;;;8.10;1.98;;;;;;;;;;5376435;26;20011;-68
2024/04/12 00:58:59;;;;;;;9.15;2.47;;;;;;;;;;5366763;26;20799;-68
2024/04/12 01:01:26;;;;;;;9.18;2.08;;;;;;;;;;5369983;26;20018;-68
2024/04/12 01:03:55;;;;;;;10.68;2.38;;;;;;;;;;5381631;26;19999;-68
2024/04/12 01:06:24;;;;;;;10.30;2.15;;;;;;;;;;5325056;26;20030;-68
2024/04/12 01:08:54;;;;;;;9.48;2.15;;;;;;;;;;5364669;26;20036;-68
2024/04/12 01:11:22;;;;;;;9.88;2.72;;;;;;;;;;5376232;26;20018;-68
2024/04/12 01:13:52;;;;;;;12.25;2.40;;;;;;;;;;5366924;26;20011;-68
2024/04/12 01:16:19;;;;;;;11.88;2.42;;;;;;;;;;5370228;26;20008;-69
2024/04/12 01:18:55;;;;;;;11.10;2.50;;;;;;;;;;5382014;26;20440;-68
2024/04/12 01:21:26;;;;;;;10.77;2.45;;;;;;;;;;5364057;26;20095;-69
2024/04/12 01:23:54;;;;;;;11.05;2.00;;;;;;;;;;5367564;26;20008;-68
2024/04/12 01:26:23;;;;;;;10.45;2.78;;;;;;;;;;5371928;26;20018;-69
2024/04/12 01:28:51;;;;;;;10.07;2.40;;;;;;;;;;5371448;26;20013;-69
2024/04/12 01:31:19;;;;;;;11.02;2.58;;;;;;;;;;5373902;26;20000;-69
2024/04/12 01:33:51;;;;;;;9.23;2.30;;;;;;;;;;5376719;26;20007;-69
2024/04/12 01:36:22;;;;;;;10.05;2.20;;;;;;;;;;5363062;26;20087;-69
2024/04/12 01:38:54;;;;;;;10.95;2.50;;;;;;;;;;5359760;26;20019;-69
2024/04/12 01:41:31;;;;;;;10.13;2.45;;;;;;;;;;5372339;26;20029;-68
2024/04/12 01:44:06;;;;;;;11.25;2.40;;;;;;;;;;5371210;26;20046;-70
2024/04/12 01:46:35;;;;;;;8.60;2.30;;;;;;;;;;5379722;26;20045;-69
2024/04/12 01:49:05;;;;;;;10.88;2.40;;;;;;;;;;5351840;26;21332;-70
2024/04/12 01:51:35;;;;;;;11.07;2.28;;;;;;;;;;5370186;26;20021;-69
2024/04/12 01:54:13;;;;;;;8.68;2.30;;;;;;;;;;5367546;26;20095;-69
2024/04/12 01:56:42;;;;;;;8.32;1.85;;;;;;;;;;5383808;26;20007;-69
2024/04/12 01:59:14;;;;;;;11.73;2.40;;;;;;;;;;5376392;26;20012;-70
2024/04/12 02:01:46;;;;;;;7.75;1.90;;;;;;;;;;5367395;26;20006;-69
2024/04/12 02:04:18;;;;;;;8.73;2.10;;;;;;;;;;5375765;26;20025;-70
2024/04/12 02:06:48;;;;;;;9.32;2.28;;;;;;;;;;5348201;26;20011;-69
2024/04/12 02:09:15;;;;;;;9.32;2.35;;;;;;;;;;5381550;26;20019;-70
2024/04/12 02:11:45;;;;;;;9.32;2.03;;;;;;;;;;5375201;26;19999;-68
2024/04/12 02:14:13;;;;;;;8.07;2.15;;;;;;;;;;5370305;26;20464;-69
2024/04/12 02:16:42;;;;;;;7.68;2.10;;;;;;;;;;5378856;26;20537;-69
2024/04/12 02:19:13;;;;;;;8.93;2.13;;;;;;;;;;5360905;26;20008;-68
2024/04/12 02:21:40;;;;;;;8.75;2.33;;;;;;;;;;5360839;26;20006;-69
2024/04/12 02:24:11;;;;;;;10.23;2.40;;;;;;;;;;5364159;26;19995;-69
2024/04/12 02:26:42;;;;;;;8.77;2.20;;;;;;;;;;5384841;26;20018;-69
2024/04/12 02:29:11;;;;;;;8.32;2.20;;;;;;;;;;5383198;26;20013;-69
2024/04/12 02:31:40;;;;;;;9.27;2.22;;;;;;;;;;5375034;26;20030;-68
2024/04/12 02:34:09;;;;;;;8.32;2.08;;;;;;;;;;5379028;26;20076;-68
2024/04/12 02:36:37;;;;;;;10.65;2.60;;;;;;;;;;5355190;26;20101;-68
2024/04/12 02:39:08;;;;;;;9.18;2.20;;;;;;;;;;5369563;26;20548;-68
2024/04/12 02:41:37;;;;;;;10.15;2.42;;;;;;;;;;5377639;26;20025;-68
2024/04/12 02:44:06;;;;;;;12.75;2.25;;;;;;;;;;5369773;26;19996;-69
2024/04/12 02:46:33;;;;;;;9.73;2.25;;;;;;;;;;5376545;26;20088;-70
2024/04/12 02:49:06;;;;;;;9.93;2.45;;;;;;;;;;5363168;26;20032;-69
2024/04/12 02:51:34;;;;;;;10.20;2.47;;;;;;;;;;5366851;26;20007;-68
2024/04/12 02:54:01;;;;;;;11.02;2.30;;;;;;;;;;5371602;26;20015;-68
2024/04/12 02:56:31;;;;;;;9.60;2.45;;;;;;;;;;5376732;26;20015;-69
2024/04/12 02:58:59;;;;;;;9.43;2.45;;;;;;;;;;5364793;26;20619;-69
2024/04/12 03:01:26;;;;;;;9.13;2.17;;;;;;;;;;5359819;26;20011;-69
2024/04/12 03:03:58;;;;;;;10.10;2.20;;;;;;;;;;5375122;26;21034;-69
2024/04/12 03:06:32;;;;;;;9.80;2.63;;;;;;;;;;5373694;26;20025;-68
2024/04/12 03:08:59;;;;;;;10.07;2.10;;;;;;;;;;5368220;26;20037;-68
2024/04/12 03:11:33;;;;;;;12.40;2.25;;;;;;;;;;5373541;26;20026;-69
2024/04/12 03:14:09;;;;;;;9.55;2.47;;;;;;;;;;5363660;26;20015;-68
2024/04/12 03:16:36;;;;;;;9.73;2.65;;;;;;;;;;5377115;26;20035;-68
2024/04/12 03:19:18;;;;;;;8.25;2.42;;;;;;;;;;5371235;26;20031;-69
2024/04/12 03:21:50;;;;;;;10.20;2.00;;;;;;;;;;5355527;26;20008;-69
2024/04/12 03:24:18;;;;;;;10.15;2.40;;;;;;;;;;5372866;26;20011;-68
2024/04/12 03:26:47;;;;;;;12.25;2.17;;;;;;;;;;5354884;26;20986;-69
2024/04/12 03:29:16;;;;;;;9.20;2.25;;;;;;;;;;5372069;26;19996;-68
2024/04/12 03:31:46;;;;;;;8.35;2.33;;;;;;;;;;5369381;26;20030;-69
2024/04/12 03:34:14;;;;;;;8.15;2.30;;;;;;;;;;5377881;26;20047;-68
2024/04/12 03:42:03;;;;;;;8.65;2.50;;;;;;;;;;5364901;26;19999;-69
2024/04/12 03:44:34;;;;;;;10.40;2.60;;;;;;;;;;5366914;26;20003;-69
2024/04/12 03:47:07;;;;;;;11.05;2.50;;;;;;;;;;5369671;26;20092;-69
2024/04/12 03:49:36;;;;;;;9.80;2.70;;;;;;;;;;5365838;26;20030;-69
2024/04/12 03:52:04;;;;;;;10.93;2.67;;;;;;;;;;5365306;26;20664;-69
2024/04/12 03:54:32;;;;;;;7.50;2.05;;;;;;;;;;5374636;26;20018;-69
2024/04/12 03:57:06;;;;;;;9.57;2.40;;;;;;;;;;5365634;26;20007;-69
2024/04/12 03:59:34;;;;;;;10.35;2.22;;;;;;;;;;5354432;26;20003;-68
2024/04/12 04:02:07;;;;;;;9.30;2.20;;;;;;;;;;5368181;26;20030;-68
2024/04/12 04:04:44;;;;;;;12.07;2.50;;;;;;;;;;5357400;26;20012;-70
2024/04/12 04:07:15;;;;;;;9.02;2.35;;;;;;;;;;5372843;26;20015;-68
2024/04/12 04:09:42;;;;;;;9.20;2.13;;;;;;;;;;5361819;26;20012;-68
2024/04/12 04:12:17;;;;;;;8.27;2.25;;;;;;;;;;5380910;26;20004;-68
2024/04/12 04:14:49;;;;;;;8.90;2.10;;;;;;;;;;5373540;26;20003;-68
2024/04/12 04:17:18;;;;;;;8.25;2.10;;;;;;;;;;5379778;26;20011;-68
2024/04/12 04:19:51;;;;;;;9.05;2.30;;;;;;;;;;5354452;26;20000;-68
2024/04/12 04:24:58;;;;;;;9.52;2.25;;;;;;;;;;5365678;26;20027;-68
2024/04/12 04:27:25;;;;;;;8.50;2.20;;;;;;;;;;5372953;26;20013;-68
2024/04/12 04:29:56;;;;;;;9.57;2.33;;;;;;;;;;5356389;26;20137;-68
2024/04/12 04:32:26;;;;;;;9.40;2.40;;;;;;;;;;5360250;26;20010;-68
2024/04/12 04:34:54;;;;;;;10.60;2.42;;;;;;;;;;5353607;26;21203;-68
2024/04/12 04:37:27;;;;;;;10.40;2.78;;;;;;;;;;5371285;26;19999;-71
2024/04/12 04:39:55;;;;;;;10.02;2.50;;;;;;;;;;5372521;26;20016;-69
2024/04/12 04:42:23;;;;;;;8.18;2.20;;;;;;;;;;5363452;26;20004;-68
2024/04/12 04:44:50;;;;;;;9.75;2.13;;;;;;;;;;5337549;26;20003;-68
2024/04/12 04:47:17;;;;;;;9.82;2.30;;;;;;;;;;5374683;26;20030;-68
2024/04/12 04:49:44;;;;;;;10.05;2.20;;;;;;;;;;5374292;26;20023;-68
2024/04/12 04:52:11;;;;;;;10.30;2.33;;;;;;;;;;5366077;26;20049;-68
2024/04/12 04:54:39;;;;;;;11.50;2.50;;;;;;;;;;5372320;26;20115;-68
2024/04/12 04:57:06;;;;;;;10.30;2.92;;;;;;;;;;5378250;26;20015;-68
2024/04/12 04:59:35;;;;;;;14.48;2.90;;;;;;;;;;5365077;26;20896;-68
2024/04/12 05:02:02;;;;;;;13.43;2.90;;;;;;;;;;5373285;26;20714;-68
2024/04/12 05:04:33;;;;;;;11.73;3.22;;;;;;;;;;5379171;26;20458;-68
2024/04/12 05:07:00;;;;;;;11.02;2.67;;;;;;;;;;5355547;26;20023;-68
2024/04/12 05:09:27;;;;;;;12.13;3.00;;;;;;;;;;5374550;26;20008;-68
2024/04/12 05:11:55;;;;;;;13.68;3.42;;;;;;;;;;5359240;26;20007;-68
2024/04/12 05:17:04;;;;;;;11.82;3.58;;;;;;;;;;5366503;26;23327;-68
2024/04/12 05:19:43;;;;;;;12.88;4.35;;;;;;;;;;5378309;26;21073;-68
2024/04/12 05:22:19;;;;;;;15.35;4.57;;;;;;;;;;5383716;26;20022;-68
2024/04/12 05:24:52;;;;;;;12.55;3.75;;;;;;;;;;5369501;26;20011;-68
2024/04/12 05:27:20;;;;;;;14.43;3.80;;;;;;;;;;5373291;26;20093;-68
2024/04/12 05:29:47;;;;;;;11.93;3.53;;;;;;;;;;5367972;26;20003;-68
2024/04/12 05:32:14;;;;;;;9.68;3.17;;;;;;;;;;5375080;26;20104;-68
2024/04/12 05:34:42;;;;;;;13.07;3.63;;;;;;;;;;5374636;26;20003;-68
2024/04/12 05:37:09;;;;;;;11.50;3.58;;;;;;;;;;5364629;26;20007;-68
2024/04/12 05:39:41;;;;;;;14.88;3.20;;;;;;;;;;5381782;26;20098;-68
2024/04/12 05:42:09;;;;;;;14.45;3.78;;;;;;;;;;5375919;26;20089;-69
2024/04/12 05:44:41;;;;;;;11.32;4.57;;;;;;;;;;5366187;26;21779;-68
2024/04/12 05:47:09;;;;;;;10.88;3.75;;;;;;;;;;5376268;26;20006;-68
2024/04/12 05:49:37;;;;;;;12.35;4.40;;;;;;;;;;5380420;26;20095;-68
2024/04/12 05:52:06;;;;;;;11.80;3.70;;;;;;;;;;5354840;26;20007;-68
2024/04/12 05:54:44;;;;;;;13.32;4.00;;;;;;;;;;5372069;26;22061;-68
2024/04/12 05:57:12;;;;;;;14.73;4.25;;;;;;;;;;5371932;26;20008;-68
2024/04/12 05:59:42;;;;;;;12.57;4.25;;;;;;;;;;5375352;26;20015;-70
2024/04/12 06:02:10;;;;;;;15.40;4.30;;;;;;;;;;5362527;26;20011;-70
2024/04/12 06:04:37;;;;;;;17.77;4.70;;;;;;;;;;5368076;26;20618;-70
2024/04/12 06:07:11;;;;;;;16.38;3.75;;;;;;;;;;5356115;26;20007;-70
2024/04/12 06:09:39;;;;;;;16.20;4.15;;;;;;;;;;5374038;26;20498;-70
2024/04/12 06:12:07;;;;;;;12.65;4.55;;;;;;;;;;5359074;26;20018;-70
2024/04/12 06:14:38;;;;;;;13.18;4.32;;;;;;;;;;5364647;26;20007;-70
2024/04/12 06:17:15;;;;;;;13.75;4.60;;;;;;;;;;5358028;26;20813;-70
2024/04/12 06:19:42;;;;;;;12.25;4.40;;;;;;;;;;5340426;26;20008;-70
2024/04/12 06:22:13;;;;;;;13.77;4.38;;;;;;;;;;5364357;26;19995;-70
2024/04/12 06:24:42;;;;;;;10.98;3.33;;;;;;;;;;5372034;26;20015;-70
2024/04/12 06:27:10;;;;;;;15.82;4.25;;;;;;;;;;5372963;26;20004;-69
2024/04/12 06:29:37;;;;;;;14.15;4.55;;;;;;;;;;5370268;26;20007;-70
2024/04/12 06:32:06;;;;;;;12.75;3.90;;;;;;;;;;5363142;26;20004;-69
2024/04/12 06:34:37;;;;;;;10.98;3.92;;;;;;;;;;5372703;26;20203;-70
2024/04/12 06:37:08;;;;;;;13.25;4.13;;;;;;;;;;5363257;26;20012;-70
2024/04/12 06:39:36;;;;;;;13.40;4.32;;;;;;;;;;5374112;26;20010;-70
2024/04/12 06:42:05;;;;;;;15.35;4.10;;;;;;;;;;5351961;26;20011;-69
2024/04/12 06:44:32;;;;;;;10.15;3.53;;;;;;;;;;5371259;26;20015;-70
2024/04/12 06:47:00;;;;;;;12.88;3.90;;;;;;;;;;5362700;26;20007;-69
2024/04/12 06:49:27;;;;;;;12.70;3.65;;;;;;;;;;5363270;26;20012;-67
2024/04/12 06:52:10;;;;;;;18.70;3.45;;;;;;;;;;5372273;26;20007;-66
2024/04/12 06:54:41;;;;;;;9.68;2.25;;;;;;;;;;5378137;26;20014;-66
2024/04/12 06:57:25;;;;;;;11.93;2.20;;;;;;;;;;5379778;26;20000;-67
2024/04/12 06:59:58;;;;;;;9.57;1.95;;;;;;;;;;5360749;26;20004;-66
2024/04/12 07:02:46;;;;;;;18.80;3.67;;;;;;;;;;5373586;26;19999;-66
2024/04/12 07:05:15;;;;;;;14.30;3.90;;;;;;;;;;5379459;26;20016;-66
2024/04/12 07:07:42;;;;;;;12.27;3.47;;;;;;;;;;5372263;26;20449;-66
2024/04/12 07:10:10;;;;;;;15.90;4.40;;;;;;;;;;5372134;26;22163;-66
2024/04/12 07:12:38;;;;;;;15.25;4.60;;;;;;;;;;5370698;26;20083;-67
2024/04/12 07:15:09;;;;;;;13.82;4.05;;;;;;;;;;5359373;26;20383;-66
2024/04/12 07:17:39;;;;;;;13.45;4.28;;;;;;;;;;5356359;26;20014;-67
2024/04/12 07:20:13;;;;;;;13.45;4.18;;;;;;;;;;5367192;26;19999;-66
2024/04/12 07:22:40;;;;;;;13.20;4.10;;;;;;;;;;5370950;26;20011;-67
2024/04/12 07:25:09;;;;;;;11.40;3.60;;;;;;;;;;5337080;26;20098;-67
2024/04/12 07:27:41;;;;;;;11.48;3.30;;;;;;;;;;5371743;26;20019;-67
2024/04/12 07:30:10;;;;;;;10.20;3.72;;;;;;;;;;5377192;26;20018;-67
2024/04/12 07:32:38;;;;;;;12.07;3.90;;;;;;;;;;5374963;26;20014;-66
2024/04/12 07:37:54;;;;;;;11.48;4.70;;;;;;;;;;5373711;26;20312;-67
2024/04/12 07:40:24;;;;;;;15.63;5.05;;;;;;;;;;5373098;26;19999;-67
2024/04/12 07:42:57;;;;;;;13.30;4.47;;;;;;;;;;5372999;26;20614;-67
2024/04/12 07:45:25;;;;;;;11.40;4.05;;;;;;;;;;5367734;26;20120;-67
2024/04/12 07:47:54;;;;;;;12.65;3.80;;;;;;;;;;5369789;26;20024;-67
2024/04/12 07:50:28;;;;;;;15.15;4.13;;;;;;;;;;5375329;26;20021;-66
2024/04/12 07:52:58;;;;;;;12.05;3.78;;;;;;;;;;5364822;26;20598;-66
2024/04/12 07:55:26;;;;;;;10.55;3.25;;;;;;;;;;5378855;26;20029;-66
2024/04/12 07:57:53;;;;;;;9.45;3.25;;;;;;;;;;5369340;26;20015;-67
2024/04/12 08:01:09;;;;;;;9.15;2.78;;;;;;;;;;5371374;26;20570;-67
2024/04/12 08:03:15;;;;;;;9.57;2.53;;;;;;;;;;5348932;26;20018;-68
2024/04/12 08:06:03;;;;;;;11.20;2.83;;;;;;;;;;5378316;26;20635;-67
2024/04/12 08:08:31;;;;;;;8.60;1.90;;;;;;;;;;5369577;26;20022;-67
2024/04/12 08:11:11;;;;;;;9.32;2.15;;;;;;;;;;5366171;26;20019;-67
2024/04/12 08:13:50;;;;;;;8.75;2.15;;;;;;;;;;5378472;26;20000;-66
2024/04/12 08:16:23;;;;;;;9.27;1.92;;;;;;;;;;5355837;26;20730;-65
2024/04/12 08:18:57;;;;;;;17.67;2.88;;;;;;;;;;5369973;26;20022;-67
2024/04/12 08:21:28;;;;;;;8.90;2.08;;;;;;;;;;5369784;26;20436;-66
2024/04/12 08:23:56;;;;;;;9.05;2.20;;;;;;;;;;5371643;26;20592;-66
2024/04/12 08:26:27;;;;;;;10.57;2.28;;;;;;;;;;5381515;26;20048;-66
2024/04/12 08:28:55;;;;;;;8.88;2.10;;;;;;;;;;5360533;26;20000;-67
2024/04/12 08:31:23;;;;;;;10.85;2.17;;;;;;;;;;5377739;26;20036;-67
2024/04/12 08:33:53;;;;;;;10.18;2.15;;;;;;;;;;5376706;26;20063;-66
2024/04/12 08:36:24;;;;;;;7.78;2.00;;;;;;;;;;5377654;26;20386;-66
2024/04/12 08:38:57;;;;;;;8.57;1.80;;;;;;;;;;5371049;26;20015;-66
2024/04/12 08:41:25;;;;;;;9.95;1.98;;;;;;;;;;5381578;26;20018;-66
2024/04/12 08:43:58;;;;;;;9.13;2.00;;;;;;;;;;5374605;26;20011;-66
2024/04/12 08:46:33;;;;;;;6.82;1.92;;;;;;;;;;5372674;26;19999;-67
2024/04/12 08:49:03;;;;;;;8.10;1.63;;;;;;;;;;5360433;26;20775;-65
2024/04/12 08:51:32;;;;;;;9.75;1.92;;;;;;;;;;5373468;26;20007;-66
2024/04/12 08:54:04;;;;;;;8.85;2.00;;;;;;;;;;5366354;26;20030;-67
2024/04/12 08:56:31;;;;;;;10.05;1.75;;;;;;;;;;5370559;26;20526;-66
2024/04/12 08:59:05;;;;;;;10.10;3.10;;;;;;;;;;5373165;26;20444;-67
2024/04/12 09:01:35;;;;;;;11.25;2.90;;;;;;;;;;5367830;26;20084;-67
2024/04/12 09:04:06;;;;;;;10.23;3.38;;;;;;;;;;5373320;26;20649;-66
2024/04/12 09:06:37;;;;;;;10.70;2.72;;;;;;;;;;5375700;26;22483;-66
2024/04/12 09:09:04;;;;;;;11.20;2.55;;;;;;;;;;5380366;26;20023;-66
2024/04/12 09:11:32;;;;;;;9.85;3.17;;;;;;;;;;5363892;26;20068;-66
2024/04/12 09:14:09;;;;;;;11.18;3.30;;;;;;;;;;5366883;26;20022;-66
2024/04/12 09:16:43;;;;;;;10.75;2.72;;;;;;;;;;5376707;26;19999;-66
2024/04/12 09:19:14;;;;;;;11.93;3.85;;;;;;;;;;5378904;26;20097;-66
2024/04/12 09:21:51;;;;;;;10.73;3.30;;;;;;;;;;5380493;26;20538;-66
2024/04/12 09:24:31;;;;;;;10.43;3.58;;;;;;;;;;5384675;26;20003;-66
2024/04/12 09:27:06;;;;;;;8.75;3.05;;;;;;;;;;5367080;26;20093;-67
2024/04/12 09:29:43;;;;;;;9.93;2.65;;;;;;;;;;5381394;26;20038;-67
2024/04/12 09:34:58;;;;;;;;;;;;;;;;;;5369568;26;20029;-66
2024/04/12 09:37:29;;;;;;;14.23;5.07;;;;;;;;;;5377487;26;19925;-66
2024/04/12 09:42:47;;;;;;;11.35;3.40;;;;;;;;;;5378397;26;20003;-66
2024/04/12 09:45:21;;;;;;;12.68;3.80;;;;;;;;;;5376285;26;20023;-66
2024/04/12 10:38:44;;;;;;;6.85;1.40;;;;;;;;;;5329670;26;20042;-66
2024/04/12 10:41:12;;;;;;;7.18;1.58;;;;;;;;;;5324085;26;20015;-66
2024/04/12 10:43:41;;;;;;;6.28;1.50;;;;;;;;;;5329833;26;20052;-66
2024/04/12 10:46:11;;;;;;;8.07;1.70;;;;;;;;;;5330632;26;19996;-66
2024/04/12 10:48:39;;;;;;;7.90;1.58;;;;;;;;;;5327022;26;20004;-65
2024/04/12 10:51:12;;;;;;;11.10;1.92;;;;;;;;;;5327100;26;20019;-66
2024/04/12 10:53:39;;;;;;;9.27;1.67;;;;;;;;;;5303840;26;20091;-66
2024/04/12 10:56:07;;;;;;;7.45;1.63;;;;;;;;;;5300484;26;20004;-66
2024/04/12 10:58:38;;;;;;;9.52;1.88;;;;;;;;;;5330347;26;20011;-66
2024/04/12 11:01:05;;;;;;;6.60;1.63;;;;;;;;;;5324683;26;20066;-66
2024/04/12 11:03:38;;;;;;;18.92;2.88;;;;;;;;;;5302301;26;20016;-66
2024/04/12 11:06:18;;;;;;;12.27;2.03;;;;;;;;;;5297541;26;20885;-66
2024/04/12 11:08:47;;;;;;;15.43;2.05;;;;;;;;;;5331588;26;20326;-66
2024/04/12 11:11:26;;;;;;;6.22;1.55;;;;;;;;;;5384227;26;20020;-66
2024/04/12 11:13:55;;;;;;;10.65;1.92;;;;;;;;;;5371297;26;20018;-66
2024/04/12 11:33:05;;;;;;;8.52;1.40;;;;;;;;;;5367221;26;19936;-66
2024/04/12 11:35:34;;;;;;;9.60;1.80;;;;;;;;;;5384908;26;20000;-66
2024/04/12 11:38:04;;;;;;;6.68;1.70;;;;;;;;;;5373071;26;20022;-65
2024/04/12 11:40:37;;;;;;;8.52;1.63;;;;;;;;;;5377112;26;20931;-67
2024/04/12 11:43:06;;;;;;;6.68;1.90;;;;;;;;;;5363185;26;20004;-67
2024/04/12 11:45:40;;;;;;;10.68;2.17;;;;;;;;;;5370717;26;20460;-68
2024/04/12 11:48:14;;;;;;;9.13;1.58;;;;;;;;;;5357117;26;20000;-65
2024/04/12 11:50:43;;;;;;;8.30;1.52;;;;;;;;;;5367896;26;20000;-66
2024/04/12 11:53:11;;;;;;;12.73;1.67;;;;;;;;;;5362754;26;20010;-66
2024/04/12 11:55:42;;;;;;;7.95;2.00;;;;;;;;;;5376546;26;19996;-65
2024/04/12 11:58:09;;;;;;;5.72;1.50;;;;;;;;;;5369189;26;20004;-65
2024/04/12 12:00:40;;;;;;;6.05;1.63;;;;;;;;;;5370970;26;20014;-65
2024/04/12 12:03:15;;;;;;;9.82;1.70;;;;;;;;;;5379533;26;19995;-66
2024/04/12 12:05:42;;;;;;;;;;;;;;;;;;5363477;26;20020;-65
2024/04/12 12:08:13;;;;;;;11.15;2.25;;;;;;;;;;5374876;26;19925;-66
2024/04/12 12:10:44;;;;;;;10.45;1.90;;;;;;;;;;5362859;26;20011;-66
2024/04/12 12:13:13;;;;;;;8.27;1.52;;;;;;;;;;5365377;26;20031;-65
2024/04/12 12:15:42;;;;;;;13.07;1.98;;;;;;;;;;5370951;26;20415;-65
2024/04/12 12:18:08;;;;;;;6.65;1.70;;;;;;;;;;5376339;26;21925;-65
2024/04/12 12:20:34;;;;;;;7.38;1.45;;;;;;;;;;5356152;26;20914;-66
2024/04/12 12:23:01;;;;;;;11.48;1.90;;;;;;;;;;5366559;26;20714;-66
2024/04/12 12:25:29;;;;;;;6.68;1.67;;;;;;;;;;5371302;26;20029;-66
2024/04/12 12:27:56;;;;;;;5.60;1.42;;;;;;;;;;5366003;26;20006;-66
2024/04/12 12:30:24;;;;;;;10.23;1.70;;;;;;;;;;5366170;26;21013;-66
2024/04/12 12:32:52;;;;;;;6.97;1.45;;;;;;;;;;5353850;26;19995;-69
2024/04/12 12:35:22;;;;;;;7.75;1.75;;;;;;;;;;5363768;26;20003;-70
2024/04/12 12:37:55;;;;;;;10.13;1.90;;;;;;;;;;5355531;26;20010;-69
2024/04/12 12:40:23;;;;;;;8.90;1.60;;;;;;;;;;5372988;26;20027;-68
2024/04/12 12:42:55;;;;;;;7.45;1.95;;;;;;;;;;5369303;26;19996;-69
2024/04/12 12:45:24;;;;;;;6.72;1.83;;;;;;;;;;5374691;26;20003;-69
2024/04/12 12:47:53;;;;;;;8.32;1.90;;;;;;;;;;5363274;26;20000;-69
2024/04/12 12:50:22;;;;;;;8.60;2.30;;;;;;;;;;5373695;26;20012;-68
2024/04/12 12:52:50;;;;;;;6.30;1.63;;;;;;;;;;5361820;26;20418;-71
2024/04/12 12:55:23;;;;;;;8.45;2.10;;;;;;;;;;5367922;26;20002;-71
2024/04/12 12:58:09;;;;;;;9.20;1.90;;;;;;;;;;5360885;26;20013;-70
2024/04/12 13:00:44;;;;;;;7.57;1.75;;;;;;;;;;5363796;26;20479;-70
2024/04/12 13:03:12;;;;;;;9.85;1.88;;;;;;;;;;5363008;26;20008;-70
2024/04/12 13:05:40;;;;;;;16.23;2.42;;;;;;;;;;5366467;26;20004;-71
2024/04/12 13:08:07;;;;;;;12.10;2.03;;;;;;;;;;5368034;26;20754;-71
2024/04/12 13:10:37;;;;;;;8.15;1.60;;;;;;;;;;5372055;26;20036;-69
2024/04/12 13:13:05;;;;;;;8.15;2.08;;;;;;;;;;5366269;26;20014;-71
2024/04/12 13:15:32;;;;;;;6.95;1.67;;;;;;;;;;5366223;26;19999;-70
2024/04/12 13:18:01;;;;;;;9.88;2.30;;;;;;;;;;5365734;26;20828;-71
2024/04/12 13:20:27;;;;;;;7.20;1.70;;;;;;;;;;5372748;26;20114;-70
2024/04/12 13:22:55;;;;;;;6.38;1.45;;;;;;;;;;5364643;26;20038;-70
2024/04/12 13:25:22;;;;;;;9.65;1.92;;;;;;;;;;5364708;26;19999;-69
2024/04/12 13:27:51;;;;;;;8.05;1.60;;;;;;;;;;5364904;26;20007;-70
2024/04/12 13:30:17;;;;;;;6.82;1.52;;;;;;;;;;5376481;26;20549;-69
2024/04/12 13:32:58;;;;;;;8.65;1.60;;;;;;;;;;5366876;26;20003;-69
2024/04/12 13:35:27;;;;;;;7.35;1.83;;;;;;;;;;5371435;26;20016;-69
2024/04/12 13:37:55;;;;;;;7.53;1.70;;;;;;;;;;5362787;26;20009;-69
2024/04/12 13:40:22;;;;;;;6.38;1.50;;;;;;;;;;5367362;26;20065;-71
2024/04/12 13:42:50;;;;;;;7.53;1.75;;;;;;;;;;5369531;26;20015;-71
2024/04/12 13:50:55;;;;;;;6.72;1.60;;;;;;;;;;5365266;26;20502;-71
2024/04/12 13:53:43;;;;;;;6.03;1.73;;;;;;;;;;5371749;26;20015;-70
2024/04/12 13:56:20;;;;;;;8.15;1.88;;;;;;;;;;5373250;26;20014;-71
2024/04/12 13:58:52;;;;;;;7.47;1.60;;;;;;;;;;5361422;26;20658;-71
2024/04/12 14:01:23;;;;;;;6.60;1.48;;;;;;;;;;5377414;26;20018;-71
2024/04/12 14:04:02;;;;;;;7.18;1.63;;;;;;;;;;5372177;26;20015;-70
2024/04/12 14:06:36;;;;;;;8.65;1.50;;;;;;;;;;5368309;26;20072;-70
2024/04/12 14:09:13;;;;;;;7.45;1.50;;;;;;;;;;5357841;26;20022;-71
2024/04/12 14:11:40;;;;;;;9.30;1.77;;;;;;;;;;5372875;26;20011;-70
2024/04/12 14:14:08;;;;;;;6.35;1.65;;;;;;;;;;5359098;26;20003;-70
2024/04/12 14:16:42;;;;;;;6.90;1.73;;;;;;;;;;5372322;26;20012;-70
2024/04/12 14:19:17;;;;;;;5.95;1.60;;;;;;;;;;5372104;26;20007;-70
2024/04/12 14:21:57;;;;;;;7.57;1.50;;;;;;;;;;5372494;26;20023;-68
2024/04/12 14:27:11;;;;;;;6.72;1.60;;;;;;;;;;5371109;26;20132;-69
2024/04/12 14:29:39;;;;;;;7.47;2.00;;;;;;;;;;5374269;26;20045;-70
2024/04/12 14:32:07;;;;;;;6.85;1.80;;;;;;;;;;5360308;26;20017;-70
2024/04/12 14:34:34;;;;;;;9.70;2.08;;;;;;;;;;5370923;26;20012;-70
2024/04/12 14:37:02;;;;;;;7.47;1.77;;;;;;;;;;5355653;26;20122;-70
2024/04/12 14:39:29;;;;;;;7.05;1.85;;;;;;;;;;5370446;26;20004;-70
2024/04/12 14:42:00;;;;;;;8.52;1.90;;;;;;;;;;5355140;26;20007;-71
2024/04/12 14:44:28;;;;;;;7.50;1.88;;;;;;;;;;5373202;26;20004;-70
2024/04/12 14:46:57;;;;;;;9.40;1.60;;;;;;;;;;5364643;26;20007;-70
2024/04/12 14:49:25;;;;;;;7.32;1.75;;;;;;;;;;5370930;26;20015;-70
2024/04/12 14:51:55;;;;;;;7.47;1.80;;;;;;;;;;5368279;26;20011;-70
2024/04/12 14:54:23;;;;;;;9.18;1.90;;;;;;;;;;5375345;26;19999;-71
2024/04/12 14:56:51;;;;;;;6.97;1.65;;;;;;;;;;5368401;26;20059;-72
2024/04/12 14:59:18;;;;;;;7.18;1.80;;;;;;;;;;5378171;26;20611;-70
2024/04/12 15:01:46;;;;;;;8.55;1.60;;;;;;;;;;5356258;26;20011;-70
2024/04/12 15:48:28;;;;;;;5.97;1.48;;;;;;;;;;5368817;26;20661;-69
2024/04/12 15:50:56;;;;;;;6.55;1.77;;;;;;;;;;5369537;26;20104;-70
2024/04/12 15:53:27;;;;;;;5.90;1.42;;;;;;;;;;5370453;26;20008;-66
2024/04/12 16:12:25;;;;;;;9.38;1.80;;;;;;;;;;5361508;26;20018;-67
2024/04/12 16:14:53;;;;;;;6.60;1.85;;;;;;;;;;5358187;26;20010;-67
2024/04/12 16:17:20;;;;;;;6.60;1.73;;;;;;;;;;5359908;26;20022;-67
2024/04/12 16:19:47;;;;;;;6.63;1.63;;;;;;;;;;5359407;26;20016;-67
2024/04/12 16:22:17;;;;;;;8.80;1.83;;;;;;;;;;5367260;26;20453;-67
2024/04/12 16:24:45;;;;;;;7.60;1.77;;;;;;;;;;5357395;26;20119;-66
2024/04/12 16:27:12;;;;;;;7.47;1.95;;;;;;;;;;5371494;26;20003;-67
2024/04/12 16:29:40;;;;;;;6.47;1.63;;;;;;;;;;5366937;26;20091;-67
2024/04/12 16:32:08;;;;;;;7.45;1.92;;;;;;;;;;5368973;26;20578;-66
2024/04/12 16:34:36;;;;;;;8.95;2.22;;;;;;;;;;5361530;26;20015;-68
2024/04/12 16:37:05;;;;;;;8.70;1.95;;;;;;;;;;5353517;26;20131;-68
2024/04/12 16:39:32;;;;;;;10.50;1.70;;;;;;;;;;5358867;26;20041;-67
2024/04/12 16:42:00;;;;;;;6.65;1.83;;;;;;;;;;5367006;26;20468;-67
2024/04/12 16:44:27;;;;;;;7.93;1.75;;;;;;;;;;5363069;26;20023;-67
2024/04/12 16:46:55;;;;;;;6.28;1.60;;;;;;;;;;5368256;26;20774;-67
2024/04/12 16:49:22;;;;;;;7.47;1.92;;;;;;;;;;5369093;26;20011;-67
2024/04/12 16:51:54;;;;;;;11.93;2.00;;;;;;;;;;5371562;26;20007;-68
2024/04/12 16:54:20;;;;;;;8.10;1.50;;;;;;;;;;5376204;26;20805;-67
2024/04/12 16:56:48;;;;;;;6.22;1.77;;;;;;;;;;5364640;26;20068;-67
2024/04/12 16:59:15;;;;;;;9.55;1.70;;;;;;;;;;5373238;26;20026;-67
2024/04/12 17:01:42;;;;;;;6.30;1.70;;;;;;;;;;5365171;26;19999;-67
2024/04/12 17:04:10;;;;;;;9.07;1.75;;;;;;;;;;5369088;26;20019;-67
2024/04/12 17:06:37;;;;;;;7.18;2.03;;;;;;;;;;5379484;26;19995;-68
2024/04/12 17:09:09;;;;;;;7.72;2.25;;;;;;;;;;5354030;26;20019;-67
2024/04/12 17:11:37;;;;;;;6.72;2.03;;;;;;;;;;5373015;26;20007;-67
2024/04/12 17:14:04;;;;;;;8.13;2.20;;;;;;;;;;5362311;26;20007;-67
2024/04/12 17:16:32;;;;;;;7.47;1.90;;;;;;;;;;5374134;26;20000;-67
2024/04/12 17:18:59;;;;;;;8.77;2.25;;;;;;;;;;5353104;26;20024;-68
2024/04/12 17:21:27;;;;;;;10.98;2.15;;;;;;;;;;5374394;26;20498;-67
2024/04/12 17:23:54;;;;;;;6.85;2.00;;;;;;;;;;5358931;26;20038;-67
2024/04/12 17:26:22;;;;;;;9.35;2.00;;;;;;;;;;5374293;26;20000;-67
2024/04/12 17:28:49;;;;;;;7.88;2.00;;;;;;;;;;5362954;26;20574;-67
2024/04/12 17:31:18;;;;;;;8.00;1.90;;;;;;;;;;5365377;26;20015;-67